Time;durP1;ratioP1;P1;durP2;ratioP2;P2;SDS_P1;SDS_P2;PMS_P1;PMS_P2;Temp;Humidity;BMP_temperature;BMP_pressure;BME280_temperature;BME280_humidity;BME280_pressure;Samples;Min_cycle;Max_cycle;Signal;HPM_P1;HPM_P2
2023/08/24 06:25:00;;;;;;;6.03;3.50;;;20.60;99.90;;;;;;5434880;23;20230;-88
2023/08/24 06:50:38;;;;;;;8.80;3.23;;;21.40;99.90;;;;;;4838035;29;20210;-87
2023/08/24 06:54:26;;;;;;;6.47;2.97;;;21.50;99.90;;;;;;4725337;30;20242;-88
2023/08/24 07:00:07;;;;;;;5.37;3.40;;;21.80;99.90;;;;;;4731456;30;20663;-84
2023/08/24 07:02:41;;;;;;;7.07;2.90;;;21.90;99.90;;;;;;4743857;30;20221;-84
2023/08/24 07:05:12;;;;;;;6.83;2.83;;;21.90;99.90;;;;;;4749337;30;20710;-84
2023/08/24 07:07:58;;;;;;;7.63;3.20;;;22.00;99.90;;;;;;4749301;30;20348;-86
2023/08/24 07:10:29;;;;;;;5.13;2.80;;;22.10;99.90;;;;;;4749305;30;20209;-82
2023/08/24 07:13:09;;;;;;;4.80;2.93;;;22.00;99.90;;;;;;4748539;30;20654;-82
2023/08/24 07:16:16;;;;;;;6.20;3.43;;;22.10;99.90;;;;;;4738558;30;20213;-81
2023/08/24 07:19:39;;;;;;;6.50;2.77;;;22.10;99.90;;;;;;4839012;29;20206;-84
2023/08/24 07:22:18;;;;;;;6.03;3.10;;;22.30;99.90;;;;;;4853278;29;20233;-87
2023/08/24 07:29:16;;;;;;;8.00;3.17;;;22.60;99.90;;;;;;4911721;29;20209;-84
2023/08/24 07:31:58;;;;;;;4.37;2.80;;;22.80;99.90;;;;;;4876111;29;20197;-85
2023/08/24 07:34:31;;;;;;;6.13;3.10;;;22.70;99.90;;;;;;4859208;29;20204;-84
2023/08/24 07:37:07;;;;;;;5.63;2.97;;;22.80;99.90;;;;;;4855768;29;20391;-83
2023/08/24 07:40:17;;;;;;;6.97;3.20;;;22.80;99.90;;;;;;4873121;29;20215;-84
2023/08/24 07:42:50;;;;;;;5.88;2.75;;;23.00;99.90;;;;;;4860043;29;20232;-84
2023/08/24 08:01:12;;;;;;;5.53;2.83;;;23.30;99.90;;;;;;4531162;26;20234;-86
2023/08/24 08:18:31;;;;;;;5.68;2.88;;;26.80;99.90;;;;;;4773306;30;20235;-86
2023/08/24 08:22:21;;;;;;;5.75;2.72;;;27.30;99.90;;;;;;4760594;30;20244;-83
2023/08/24 08:25:52;;;;;;;4.53;2.70;;;26.70;99.90;;;;;;4765088;30;20212;-84
2023/08/24 08:29:07;;;;;;;4.07;2.47;;;27.00;99.90;;;;;;4702071;30;20194;-83
2023/08/24 08:32:07;;;;;;;;;;;;;;;;;;;;;
2023/08/24 08:35:04;;;;;;;10.23;3.20;;;27.90;99.90;;;;;;4617833;30;20289;-82
2023/08/24 08:38:25;;;;;;;4.30;2.47;;;28.10;99.90;;;;;;4594751;31;20214;-83
2023/08/24 08:41:46;;;;;;;4.40;2.25;;;28.30;99.90;;;;;;4571290;31;20831;-85
2023/08/24 08:44:14;;;;;;;6.97;2.30;;;29.20;99.90;;;;;;4580559;31;20291;-82
2023/08/24 08:46:54;;;;;;;4.85;2.22;;;29.40;99.90;;;;;;4580159;31;20682;-79
2023/08/24 08:49:27;;;;;;;3.13;2.13;;;29.30;99.90;;;;;;4613614;31;20199;-78
2023/08/24 09:02:48;;;;;;;3.72;2.30;;;27.90;99.90;;;;;;4815378;29;20231;-87
2023/08/24 09:06:14;;;;;;;7.60;2.80;;;28.30;99.90;;;;;;4730856;30;20221;-90
2023/08/24 09:18:10;;;;;;;;;;;;;;;;;;;;;
2023/08/24 09:21:32;;;;;;;;;;;;;;;;;;;;;
2023/08/24 09:24:42;;;;;;;4.30;2.30;;;29.20;98.40;;;;;;5505688;22;21942;-80
2023/08/24 09:41:53;;;;;;;5.72;2.55;;;29.10;96.70;;;;;;4891015;29;20569;-80
2023/08/24 09:45:00;;;;;;;5.47;2.10;;;29.60;96.00;;;;;;4874669;29;20712;-89
2023/08/24 09:47:51;;;;;;;2.65;2.03;;;30.30;94.50;;;;;;4889422;29;20181;-81
2023/08/24 09:50:26;;;;;;;2.97;1.90;;;29.30;92.10;;;;;;4875941;29;20302;-79
2023/08/24 09:53:02;;;;;;;4.35;2.10;;;29.00;93.20;;;;;;4875175;29;20224;-80
2023/08/24 09:55:39;;;;;;;4.13;2.30;;;29.10;92.30;;;;;;4876485;29;20212;-86
2023/08/24 09:59:03;;;;;;;;;;;;;;;;;;;;;
2023/08/24 10:01:58;;;;;;;4.38;2.50;;;29.40;93.50;;;;;;4835338;29;20674;-84
2023/08/24 10:05:19;;;;;;;3.40;2.25;;;29.70;92.50;;;;;;4829083;29;20233;-77
2023/08/24 10:09:12;;;;;;;7.13;2.25;;;29.50;92.00;;;;;;4833629;29;20220;-79
2023/08/24 10:12:53;;;;;;;2.75;2.10;;;29.80;92.60;;;;;;4801480;29;20210;-79
2023/08/24 10:20:46;;;;;;;3.85;2.40;;;30.90;90.40;;;;;;4796631;29;20238;-78
2023/08/24 10:24:24;;;;;;;5.00;2.28;;;31.00;90.70;;;;;;4741655;30;20308;-87
2023/08/24 10:30:59;;;;;;;3.80;2.08;;;29.70;90.90;;;;;;4618352;31;20206;-87
2023/08/24 10:33:36;;;;;;;4.45;2.08;;;30.10;90.90;;;;;;4632750;30;20236;-82
2023/08/24 10:36:25;;;;;;;;;;;;;;;;;;;;;
2023/08/24 10:38:58;;;;;;;2.60;2.00;;;31.20;88.30;;;;;;4633124;30;20301;-82
2023/08/24 10:41:28;;;;;;;2.78;2.20;;;31.10;89.20;;;;;;4618914;30;20204;-75
2023/08/24 10:44:20;;;;;;;2.92;2.10;;;30.80;88.10;;;;;;4632633;30;20193;-76
2023/08/24 10:47:12;;;;;;;2.55;1.90;;;30.40;86.50;;;;;;4619539;30;20197;-76
2023/08/24 10:49:41;;;;;;;3.17;2.10;;;30.50;88.60;;;;;;4657178;30;20195;-76
2023/08/24 10:52:24;;;;;;;6.22;2.67;;;30.70;88.40;;;;;;4685810;30;20231;-77
2023/08/24 10:55:22;;;;;;;11.63;3.58;;;30.40;88.90;;;;;;4712049;30;20235;-77
2023/08/24 10:58:17;;;;;;;4.78;2.13;;;30.70;90.00;;;;;;4803961;29;20570;-77
2023/08/24 11:00:51;;;;;;;3.53;2.30;;;31.30;90.60;;;;;;4804076;29;20216;-80
2023/08/24 11:03:32;;;;;;;3.25;2.45;;;31.60;87.40;;;;;;4823812;28;20201;-75
2023/08/24 11:06:19;;;;;;;4.55;2.83;;;31.60;87.60;;;;;;4958176;28;20213;-77
2023/08/24 11:13:22;;;;;;;5.90;2.92;;;32.10;87.80;;;;;;4837563;29;20225;-84
2023/08/24 11:16:47;;;;;;;6.03;2.50;;;32.20;85.40;;;;;;4824844;29;20225;-85
2023/08/24 11:20:12;;;;;;;3.85;2.55;;;31.70;84.90;;;;;;5047729;28;20905;-80
2023/08/24 11:27:44;;;;;;;;;;;;;;;;;;;;;
2023/08/24 11:30:37;;;;;;;3.50;2.30;;;32.20;82.40;;;;;;4947873;28;20217;-81
2023/08/24 11:33:34;;;;;;;3.55;2.20;;;32.10;82.30;;;;;;4919742;29;20605;-86
2023/08/24 11:36:19;;;;;;;3.20;2.33;;;31.30;84.40;;;;;;4947088;28;20216;-83
2023/08/24 11:39:17;;;;;;;2.97;2.30;;;31.90;82.40;;;;;;4932046;29;20768;-77
2023/08/24 11:42:21;;;;;;;2.55;2.28;;;31.80;81.60;;;;;;4930148;29;20212;-77
2023/08/24 11:44:56;;;;;;;5.97;2.30;;;31.60;81.20;;;;;;4932300;29;20598;-77
2023/08/24 11:47:57;;;;;;;3.83;2.25;;;31.80;83.80;;;;;;4947830;28;20204;-78
2023/08/24 11:51:17;;;;;;;6.70;2.58;;;32.80;82.30;;;;;;4917849;29;20289;-77
2023/08/24 11:54:15;;;;;;;4.97;2.50;;;33.80;81.80;;;;;;4913517;29;20205;-77
2023/08/24 11:56:52;;;;;;;4.65;2.30;;;33.70;80.00;;;;;;4912010;29;20207;-83
2023/08/24 11:59:56;;;;;;;4.85;2.40;;;34.10;77.40;;;;;;4935288;28;20229;-77
2023/08/24 12:02:37;;;;;;;5.30;2.30;;;33.90;75.30;;;;;;4952507;28;20745;-83
2023/08/24 12:05:34;;;;;;;3.78;2.40;;;34.00;77.60;;;;;;4933326;28;20684;-84
2023/08/24 12:08:21;;;;;;;3.90;2.30;;;34.30;76.40;;;;;;5012304;23;20236;-83
2023/08/24 12:11:25;;;;;;;3.60;2.38;;;34.50;75.40;;;;;;4983674;28;20189;-84
2023/08/24 12:14:05;;;;;;;4.03;2.30;;;34.80;74.80;;;;;;4978476;28;20213;-85
2023/08/24 12:16:42;;;;;;;4.65;2.45;;;33.50;75.10;;;;;;4991227;28;20288;-83
2023/08/24 12:19:24;;;;;;;4.53;2.70;;;32.60;77.30;;;;;;4988911;28;20230;-85
2023/08/24 12:22:07;;;;;;;3.83;2.67;;;32.40;75.80;;;;;;4979632;28;20300;-78
2023/08/24 12:24:45;;;;;;;3.10;2.58;;;32.00;78.60;;;;;;4992143;28;20279;-80
2023/08/24 12:27:28;;;;;;;5.70;2.58;;;31.70;80.10;;;;;;5007845;28;20195;-87
2023/08/24 12:30:15;;;;;;;4.03;2.60;;;31.30;81.00;;;;;;4977325;28;20580;-82
2023/08/24 12:32:50;;;;;;;5.57;2.65;;;31.90;80.50;;;;;;4973439;28;20260;-83
2023/08/24 12:35:40;;;;;;;6.07;2.45;;;32.50;80.30;;;;;;4957174;28;20660;-84
2023/08/24 12:38:16;;;;;;;5.18;2.45;;;32.30;77.90;;;;;;4941582;28;20268;-84
2023/08/24 12:40:55;;;;;;;;;;;;;;;;;;;;;
2023/08/24 12:43:47;;;;;;;4.88;2.35;;;32.80;74.50;;;;;;4954024;29;20288;-85
2023/08/24 12:46:23;;;;;;;3.47;2.25;;;32.60;73.50;;;;;;4937825;29;20253;-86
2023/08/24 12:48:54;;;;;;;3.60;2.20;;;33.10;73.60;;;;;;4937725;29;20630;-78
2023/08/24 12:51:24;;;;;;;3.13;2.25;;;33.30;72.20;;;;;;4953413;29;20198;-79
2023/08/24 12:54:03;;;;;;;3.55;2.40;;;33.20;73.10;;;;;;4953474;29;20319;-82
2023/08/24 12:56:53;;;;;;;3.00;2.40;;;33.30;72.30;;;;;;4952060;29;20270;-85
2023/08/24 12:59:36;;;;;;;4.63;2.40;;;33.10;72.50;;;;;;4951402;29;20222;-86
2023/08/24 13:02:14;;;;;;;4.75;2.42;;;33.10;71.00;;;;;;4938472;29;20230;-84
2023/08/24 13:05:15;;;;;;;5.85;2.30;;;32.50;72.00;;;;;;4936975;29;20244;-87
2023/08/24 13:21:23;;;;;;;4.38;2.38;;;31.60;74.50;;;;;;6017882;22;4804969;-78
2023/08/24 13:24:11;;;;;;;5.80;2.60;;;29.90;80.30;;;;;;6191188;23;20183;-81
2023/08/24 13:26:46;;;;;;;12.45;2.53;;;30.20;79.40;;;;;;6190805;23;20174;-76
2023/08/24 13:29:19;;;;;;;4.15;2.50;;;30.20;79.40;;;;;;6191134;23;20622;-82
2023/08/24 13:31:55;;;;;;;5.78;2.70;;;30.30;78.30;;;;;;6191191;23;20167;-85
2023/08/24 13:34:23;;;;;;;5.38;2.45;;;30.00;79.30;;;;;;6191380;23;20174;-81
2023/08/24 13:36:55;;;;;;;3.33;2.35;;;29.80;80.20;;;;;;6191675;23;20274;-84
2023/08/24 13:39:32;;;;;;;4.45;2.38;;;30.20;79.90;;;;;;6166024;23;20261;-88
2023/08/24 13:42:12;;;;;;;3.55;2.58;;;30.50;78.50;;;;;;6190258;23;20250;-82
2023/08/24 13:44:44;;;;;;;3.42;2.55;;;30.70;79.00;;;;;;6190809;23;20171;-88
2023/08/24 13:47:24;;;;;;;4.05;2.67;;;30.90;77.80;;;;;;6190569;23;20241;-85
2023/08/24 13:49:52;;;;;;;3.45;2.40;;;31.10;78.40;;;;;;6190249;23;20191;-77
2023/08/24 13:52:20;;;;;;;4.07;2.72;;;31.20;78.20;;;;;;6166416;23;20229;-78
2023/08/24 13:54:51;;;;;;;3.72;2.55;;;31.10;80.10;;;;;;6190472;23;20595;-77
2023/08/24 13:57:48;;;;;;;4.28;2.63;;;31.80;79.60;;;;;;6161214;23;20592;-78
2023/08/24 14:00:23;;;;;;;4.65;2.88;;;32.30;76.70;;;;;;6136343;23;20191;-86
2023/08/24 14:03:08;;;;;;;3.78;2.70;;;32.30;76.50;;;;;;6160704;23;20168;-88
2023/08/24 14:05:49;;;;;;;5.63;2.85;;;32.70;76.00;;;;;;6137909;23;20254;-86
2023/08/24 14:08:17;;;;;;;7.18;2.88;;;32.60;76.80;;;;;;6135702;23;20203;-86
2023/08/24 14:10:49;;;;;;;6.40;2.90;;;32.20;77.20;;;;;;6157913;23;20255;-87
2023/08/24 14:13:24;;;;;;;4.93;2.70;;;32.20;76.70;;;;;;6162622;23;20182;-87
2023/08/24 14:16:01;;;;;;;6.35;2.83;;;32.10;76.40;;;;;;6184502;23;20548;-79
2023/08/24 14:18:30;;;;;;;4.75;3.00;;;31.00;78.40;;;;;;6161909;23;20242;-77
2023/08/24 14:20:57;;;;;;;4.32;2.70;;;30.30;80.60;;;;;;6158355;23;20330;-80
2023/08/24 14:23:34;;;;;;;4.30;3.20;;;30.10;81.80;;;;;;6153780;23;20192;-78
2023/08/24 14:26:12;;;;;;;4.93;3.10;;;30.00;81.80;;;;;;6153819;23;20636;-78
2023/08/24 14:28:50;;;;;;;8.00;3.50;;;30.00;82.40;;;;;;6155665;23;20211;-79
2023/08/24 14:31:40;;;;;;;4.32;2.83;;;30.30;83.60;;;;;;6155997;23;20556;-87
2023/08/24 14:34:10;;;;;;;5.10;3.65;;;30.50;83.00;;;;;;6129227;23;20251;-87
2023/08/24 14:36:39;;;;;;;4.60;3.22;;;31.10;81.30;;;;;;6153931;23;20199;-83
2023/08/24 14:39:19;;;;;;;5.10;3.40;;;31.00;80.10;;;;;;6155000;23;20207;-83
2023/08/24 14:41:49;;;;;;;3.50;2.92;;;30.80;81.20;;;;;;6129425;23;20168;-87
2023/08/24 14:44:27;;;;;;;5.20;2.97;;;31.20;79.90;;;;;;6154069;23;20172;-80
2023/08/24 14:47:05;;;;;;;3.53;2.95;;;31.80;78.60;;;;;;6129911;23;20623;-79
2023/08/24 14:49:35;;;;;;;7.40;3.10;;;32.00;79.90;;;;;;6155687;23;20803;-80
2023/08/24 14:52:06;;;;;;;4.30;2.92;;;31.60;79.30;;;;;;6154843;23;20625;-79
2023/08/24 14:54:34;;;;;;;3.67;3.17;;;31.50;79.90;;;;;;6155585;23;20581;-78
2023/08/24 14:57:06;;;;;;;8.38;3.10;;;31.10;79.50;;;;;;6154561;23;20226;-80
2023/08/24 15:30:25;;;;;;;4.57;3.00;;;30.20;81.00;;;;;;5784697;24;20279;-83
2023/08/24 16:37:36;;;;;;;;;;;;;;;;;;;;;
2023/08/24 16:58:37;;;;;;;;;;;;;;;;;;;;;
2023/08/24 17:02:09;;;;;;;3.28;2.63;;;27.60;87.40;;;;;;6219939;23;20188;-83
2023/08/24 17:09:28;;;;;;;4.72;2.63;;;26.90;88.90;;;;;;6187229;23;20191;-86
2023/08/24 17:13:20;;;;;;;4.65;2.60;;;26.70;89.50;;;;;;6041285;23;20180;-82
2023/08/24 17:16:54;;;;;;;4.40;2.40;;;26.50;90.30;;;;;;5922521;24;20168;-84
2023/08/24 17:37:03;;;;;;;4.13;3.10;;;25.90;91.20;;;;;;5048712;28;21042;-77
2023/08/24 17:39:31;;;;;;;4.75;2.95;;;25.20;92.90;;;;;;5049302;28;20278;-79
2023/08/24 17:42:13;;;;;;;5.22;2.80;;;25.00;92.90;;;;;;5048994;28;20278;-78
2023/08/24 17:44:51;;;;;;;4.38;3.00;;;24.90;93.30;;;;;;5048649;28;20210;-78
2023/08/24 17:47:21;;;;;;;6.80;3.08;;;24.80;93.30;;;;;;5048079;28;20205;-78
2023/08/24 17:50:00;;;;;;;7.05;3.60;;;24.60;94.00;;;;;;5045549;28;20195;-87
2023/08/24 17:52:33;;;;;;;5.85;3.08;;;24.60;94.20;;;;;;5045756;28;20207;-79
2023/08/24 18:20:34;;;;;;;8.40;3.70;;;23.50;96.70;;;;;;5624032;23;20668;-79
2023/08/24 18:23:01;;;;;;;4.95;3.10;;;23.50;97.20;;;;;;4931079;29;20234;-76
2023/08/24 18:25:28;;;;;;;8.27;3.97;;;23.50;97.30;;;;;;4898989;29;20223;-76
2023/08/24 18:28:03;;;;;;;9.10;3.88;;;23.40;97.60;;;;;;4931004;29;20298;-80
2023/08/24 18:30:30;;;;;;;6.43;3.87;;;23.50;98.10;;;;;;4914472;29;20634;-72
2023/08/24 18:32:57;;;;;;;9.77;3.85;;;23.30;98.30;;;;;;4930530;29;20202;-76
2023/08/24 18:35:37;;;;;;;11.48;4.53;;;23.20;99.90;;;;;;4913589;29;20294;-81
2023/08/24 18:38:33;;;;;;;9.85;4.70;;;23.10;99.90;;;;;;4900943;29;20223;-82
2023/08/24 18:41:01;;;;;;;5.20;3.70;;;22.80;99.90;;;;;;4867292;29;20238;-82
2023/08/24 18:43:31;;;;;;;6.87;4.33;;;22.60;99.90;;;;;;4882530;29;20238;-83
2023/08/24 18:46:02;;;;;;;8.20;4.70;;;22.50;99.90;;;;;;4899151;29;20346;-85
2023/08/24 18:48:31;;;;;;;7.37;4.07;;;22.40;99.90;;;;;;4881676;29;20199;-86
2023/08/24 18:51:04;;;;;;;8.97;4.57;;;22.20;99.90;;;;;;4880487;29;20243;-79
2023/08/24 18:53:37;;;;;;;6.80;4.03;;;22.10;99.90;;;;;;4880201;29;20315;-81
2023/08/24 18:56:15;;;;;;;8.60;4.30;;;22.10;99.90;;;;;;4899076;29;20184;-80
2023/08/24 18:59:30;;;;;;;11.40;4.60;;;22.10;99.90;;;;;;4894784;29;20216;-80
2023/08/24 19:04:13;;;;;;;;;;;;;;;;;;;;;
2023/08/24 19:07:39;;;;;;;7.43;4.10;;;21.90;99.90;;;;;;4681466;30;20243;-79
2023/08/24 19:25:26;;;;;;;6.87;4.27;;;21.70;99.90;;;;;;5170374;22;25398864;-84
2023/08/24 19:29:06;;;;;;;8.13;4.13;;;21.50;99.90;;;;;;6143014;23;20176;-78
2023/08/24 19:32:26;;;;;;;8.60;4.67;;;21.40;99.90;;;;;;6197120;23;20195;-80
2023/08/24 19:36:37;;;;;;;;;;;;;;;;;;;;;
2023/08/24 19:39:50;;;;;;;13.73;4.90;;;21.20;99.90;;;;;;6153807;23;20257;-81
2023/08/24 19:42:33;;;;;;;7.27;4.40;;;21.20;99.90;;;;;;6138539;23;20171;-81
2023/08/24 19:45:29;;;;;;;10.03;4.73;;;21.10;99.90;;;;;;6141608;23;20639;-80
2023/08/24 19:48:23;;;;;;;10.57;4.70;;;21.00;99.90;;;;;;6156872;23;20185;-82
2023/08/24 19:51:04;;;;;;;8.10;4.33;;;20.90;99.90;;;;;;6166763;23;20201;-84
2023/08/24 19:54:07;;;;;;;7.23;4.50;;;20.90;99.90;;;;;;6192528;23;20283;-85
2023/08/24 19:57:14;;;;;;;14.00;5.40;;;20.90;99.90;;;;;;6164841;23;20179;-85
2023/08/24 20:01:08;;;;;;;;;;;;;;;;;;;;;
2023/08/24 20:07:47;;;;;;;11.63;4.93;;;20.70;99.90;;;;;;6181118;23;20431;-80
